Forside
METAR-TAF:

METAR-TAF

Lufthavne :

Flint, Michigan, USA

Breddekreds: 42-58-00N, længdekreds: 083-44-58W, højde: 238 m

Aktuelle vejr

Denne rapport blev lavet for 37 minutter siden, kl. 17:53 UTC
Vind 13 kt fra sydvest
Temperatur 10°C
Fugtighed 37%
Tryk 1013 hPa
Sigt: 16.1 km
skyfri

METAR: KFNT 231753Z 23013KT 10SM CLR 10/M04 A2991 RMK AO2 SLP133 T01001039 10100 20011 58026

Tid: 13:30 (18:30 UTC)

Vejrudsigter

Denne rapport blev lavet for 53 minutter siden, kl. 17:37 UTC
Foreløbig gælder fra 23 på 18 UTC til 24 på 18 UTC
Vind 12 kt fra sydsydvest med vindstød på up til 24 kt
Sigt: 10 km
skyfri
Fra 24 på 0000 UTC
Vind 11 kt fra sydsydvest
Sigt: 10 km
skyfri
Fra 24 på 0700 UTC
Vind 6 kt fra vest
Sigt: 10 km
Overskyet i en højde af 2500 ft
Fra 24 på 1300 UTC
Vind 3 kt fra nordnordvest
Sigt: 10 km
Overskyet i en højde af 2500 ft

TAF: KFNT 231737Z 2318/2418 21012G24KT P6SM SKC FM240000 21011KT P6SM SKC FM240700 26006KT P6SM OVC025 FM241300 33003KT P6SM OVC025

Vejrobservationer og prognoser fra mere end 4000 lufthavne (METAR og TAF).

De gule og røde prikker repræsenterer de meteorologiske stationer.

Flyt musen over at se navnet på stationen.

Så klik over at se vejr observationer og prognoser.

At skifte det kort: Klik på de grønne knapper med et sort kors for at zoome ind; på den grønne knap med en bindestreg for at zoome ud; eller på de grønne pile for tilstødende kort.


METAR-TAF: